createdAt,value
2022-10-09T00:01:11.682Z,8.32
2022-10-09T00:03:41.527Z,10.20
2022-10-09T00:06:13.627Z,12.20
2022-10-09T00:08:43.783Z,3.83
2022-10-09T00:11:13.391Z,5.97
2022-10-09T00:13:41.346Z,7.10
2022-10-09T00:16:11.918Z,4.97
2022-10-09T00:18:40.005Z,5.00
2022-10-09T00:21:18.375Z,6.82
2022-10-09T00:23:46.407Z,9.05
2022-10-09T00:26:14.408Z,4.45
2022-10-09T00:28:42.523Z,10.93
2022-10-09T00:31:12.100Z,4.07
2022-10-09T00:33:40.286Z,6.63
2022-10-09T00:36:10.319Z,5.00
2022-10-09T00:38:39.766Z,7.72
2022-10-09T00:41:09.077Z,10.18
2022-10-09T00:43:46.230Z,5.10
2022-10-09T00:46:25.684Z,19.88
2022-10-09T00:49:01.263Z,8.20
2022-10-09T00:51:31.158Z,11.32
2022-10-09T00:54:01.609Z,12.65
2022-10-09T00:56:29.911Z,5.10
2022-10-09T00:58:59.385Z,5.90
2022-10-09T01:01:27.474Z,12.07
2022-10-09T01:03:55.667Z,4.00
2022-10-09T01:06:32.123Z,9.10
2022-10-09T01:09:07.461Z,12.80
2022-10-09T01:11:42.045Z,3.55
2022-10-09T01:14:19.186Z,4.25
2022-10-09T01:16:55.987Z,7.18
2022-10-09T01:19:42.211Z,6.40
2022-10-09T01:22:22.483Z,2.13
2022-10-09T01:24:57.853Z,6.68
2022-10-09T01:27:29.194Z,10.20
2022-10-09T01:30:01.168Z,12.27
2022-10-09T01:32:34.847Z,8.95
2022-10-09T01:35:05.880Z,7.88
2022-10-09T01:37:35.922Z,10.90
2022-10-09T01:40:07.260Z,6.75
2022-10-09T01:42:36.825Z,8.85
2022-10-09T01:45:05.458Z,6.20
2022-10-09T01:47:33.618Z,2.80
2022-10-09T01:50:08.495Z,2.80
2022-10-09T01:52:44.820Z,6.82
2022-10-09T01:55:26.953Z,5.00
2022-10-09T01:58:04.150Z,4.10
2022-10-09T02:00:38.206Z,12.60
2022-10-09T02:03:10.865Z,4.55
2022-10-09T02:05:41.350Z,4.72
2022-10-09T02:08:11.322Z,6.05
2022-10-09T02:10:42.405Z,7.15
2022-10-09T02:13:12.576Z,6.68
2022-10-09T02:15:47.860Z,9.23
2022-10-09T02:18:22.501Z,3.70
2022-10-09T02:20:56.833Z,5.03
2022-10-09T02:23:25.612Z,6.68
2022-10-09T02:25:54.833Z,5.30
2022-10-09T02:28:24.728Z,7.80
2022-10-09T02:30:58.851Z,4.45
2022-10-09T02:33:32.890Z,8.57
2022-10-09T02:36:01.941Z,5.60
2022-10-09T02:38:30.332Z,3.88
2022-10-09T02:41:01.801Z,2.35
2022-10-09T02:43:31.184Z,13.45
2022-10-09T02:45:59.239Z,15.02
2022-10-09T02:48:27.229Z,4.28
2022-10-09T02:50:55.181Z,4.53
2022-10-09T02:53:23.113Z,11.20
2022-10-09T02:55:51.092Z,4.25
2022-10-09T02:58:19.185Z,4.25
2022-10-09T03:00:51.000Z,6.40
2022-10-09T03:03:19.602Z,8.38
2022-10-09T03:05:47.917Z,2.28
2022-10-09T03:08:16.151Z,5.78
2022-10-09T03:10:44.093Z,12.30
2022-10-09T03:13:12.067Z,4.18
2022-10-09T03:15:40.152Z,5.43
2022-10-09T03:18:09.553Z,10.02
2022-10-09T03:20:38.676Z,14.52
2022-10-09T03:23:06.661Z,9.02
2022-10-09T03:25:34.628Z,12.45
2022-10-09T03:28:02.801Z,3.42
2022-10-09T03:30:30.847Z,5.90
2022-10-09T03:32:58.791Z,11.15
2022-10-09T03:35:28.221Z,4.05
2022-10-09T03:37:56.147Z,10.68
2022-10-09T03:40:24.107Z,2.53
2022-10-09T03:42:52.210Z,8.02
2022-10-09T03:45:20.393Z,5.35
2022-10-09T03:47:48.338Z,4.43
2022-10-09T03:50:16.815Z,9.38
2022-10-09T03:52:46.444Z,11.45
2022-10-09T03:55:14.983Z,1.73
2022-10-09T03:57:42.897Z,2.30
2022-10-09T04:00:12.287Z,4.88
2022-10-09T04:02:40.292Z,4.95
2022-10-09T04:05:09.312Z,5.30
2022-10-09T04:07:37.246Z,7.22
2022-10-09T04:10:07.670Z,12.57
2022-10-09T04:12:35.731Z,18.48
2022-10-09T04:15:03.918Z,25.83
2022-10-09T04:17:31.862Z,54.20
2022-10-09T04:20:00.027Z,28.27
2022-10-09T04:22:28.022Z,81.40
2022-10-09T04:24:56.117Z,51.63
2022-10-09T04:27:25.500Z,18.70
2022-10-09T04:29:53.450Z,55.53
2022-10-09T04:32:21.385Z,26.13
2022-10-09T04:34:49.407Z,50.42
2022-10-09T04:37:17.344Z,38.63
2022-10-09T04:39:45.313Z,35.35
2022-10-09T04:42:13.267Z,14.40
2022-10-09T04:44:42.626Z,51.15
2022-10-09T04:47:11.402Z,11.23
2022-10-09T04:49:39.883Z,16.08
2022-10-09T04:52:07.891Z,11.55
2022-10-09T04:54:35.891Z,14.45
2022-10-09T04:57:03.800Z,21.88
2022-10-09T04:59:31.944Z,13.43
2022-10-09T05:02:01.319Z,14.50
2022-10-09T05:04:29.329Z,29.83
2022-10-09T05:06:57.322Z,53.10
2022-10-09T05:09:25.297Z,36.28
2022-10-09T05:11:53.228Z,33.88
2022-10-09T05:14:21.213Z,31.15
2022-10-09T05:17:12.500Z,43.03
2022-10-09T05:19:41.389Z,48.03
2022-10-09T05:22:09.331Z,30.65
2022-10-09T05:24:37.283Z,53.80
2022-10-09T05:27:05.985Z,48.97
2022-10-09T05:29:34.328Z,14.75
2022-10-09T05:32:02.314Z,22.60
2022-10-09T05:34:30.413Z,23.50
2022-10-09T05:37:00.599Z,15.32
2022-10-09T05:39:29.354Z,71.95
2022-10-09T05:41:57.433Z,67.20
2022-10-09T05:44:25.814Z,30.98
2022-10-09T05:46:53.853Z,46.60
2022-10-09T05:49:22.530Z,44.85
2022-10-09T05:51:51.154Z,18.35
2022-10-09T05:54:20.733Z,31.55
2022-10-09T05:56:48.923Z,28.80
2022-10-09T05:59:19.791Z,33.00
2022-10-09T06:01:50.273Z,12.10
2022-10-09T06:04:20.314Z,16.02
2022-10-09T06:06:49.528Z,32.42
2022-10-09T06:09:19.107Z,20.05
2022-10-09T06:11:48.516Z,11.20
2022-10-09T06:14:16.452Z,40.50
2022-10-09T06:16:46.343Z,22.05
2022-10-09T06:19:17.039Z,30.00
2022-10-09T06:21:47.236Z,26.20
2022-10-09T06:24:26.950Z,28.98
2022-10-09T06:26:58.433Z,66.40
2022-10-09T06:29:26.534Z,34.95
2022-10-09T06:31:54.495Z,52.88
2022-10-09T06:34:22.900Z,54.22
2022-10-09T06:36:51.095Z,27.63
2022-10-09T06:39:19.394Z,67.20
2022-10-09T06:41:47.745Z,75.75
2022-10-09T06:44:17.450Z,55.55
2022-10-09T06:46:46.898Z,33.40
2022-10-09T06:49:14.870Z,54.25
2022-10-09T06:51:42.860Z,65.80
2022-10-09T06:54:13.347Z,266.75
2022-10-09T06:56:41.625Z,206.48
2022-10-09T06:59:11.260Z,139.13
2022-10-09T07:01:40.978Z,192.15
2022-10-09T07:04:11.861Z,136.32
2022-10-09T07:06:42.045Z,258.30
2022-10-09T07:09:12.380Z,196.65
2022-10-09T07:11:43.311Z,170.65
2022-10-09T07:14:13.036Z,106.47
2022-10-09T07:16:44.931Z,145.55
2022-10-09T07:19:14.098Z,46.78
2022-10-09T07:21:43.914Z,71.00
2022-10-09T07:24:13.552Z,76.13
2022-10-09T07:26:43.310Z,123.50
2022-10-09T07:29:12.976Z,26.95
2022-10-09T07:31:40.938Z,118.88
2022-10-09T07:34:10.412Z,34.10
2022-10-09T07:36:38.411Z,76.85
2022-10-09T07:39:07.296Z,120.97
2022-10-09T07:41:35.587Z,71.07
2022-10-09T07:44:03.770Z,194.32
2022-10-09T07:46:34.046Z,122.97
2022-10-09T07:49:02.434Z,47.33
2022-10-09T07:51:33.143Z,129.63
2022-10-09T07:54:02.099Z,101.03
2022-10-09T07:56:32.811Z,161.30
2022-10-09T07:59:02.656Z,92.00
2022-10-09T08:01:32.300Z,153.13
2022-10-09T08:04:01.806Z,49.17
2022-10-09T08:06:31.612Z,81.15
2022-10-09T08:09:01.456Z,100.35
2022-10-09T08:11:31.166Z,142.57
2022-10-09T08:13:59.798Z,28.67
2022-10-09T08:16:29.177Z,42.83
2022-10-09T08:18:58.906Z,33.58
2022-10-09T08:21:28.075Z,80.82
2022-10-09T08:23:59.226Z,104.47
2022-10-09T08:26:29.400Z,46.92
2022-10-09T08:28:59.049Z,80.43
2022-10-09T08:31:28.101Z,21.42
2022-10-09T08:33:58.086Z,18.70
2022-10-09T08:36:26.564Z,17.13
2022-10-09T08:38:55.427Z,24.83
2022-10-09T08:41:40.653Z,36.45
2022-10-09T08:44:15.468Z,50.90
2022-10-09T08:46:52.744Z,35.00
2022-10-09T08:49:26.324Z,125.10
2022-10-09T08:51:59.003Z,42.75
2022-10-09T08:54:34.455Z,101.60
2022-10-09T08:57:06.396Z,29.15
2022-10-09T08:59:34.575Z,43.65
2022-10-09T09:02:14.623Z,51.65
2022-10-09T09:04:56.635Z,16.70
2022-10-09T09:07:35.062Z,49.25
2022-10-09T09:10:15.018Z,34.00
2022-10-09T09:12:51.897Z,17.17
2022-10-09T09:15:42.498Z,23.70
2022-10-09T09:18:27.765Z,71.25
2022-10-09T09:20:57.087Z,23.50
2022-10-09T09:23:28.765Z,17.40
2022-10-09T09:25:59.519Z,16.73
2022-10-09T09:28:31.630Z,11.18
2022-10-09T09:31:04.010Z,15.40
2022-10-09T09:33:44.482Z,37.65
2022-10-09T09:36:21.160Z,14.13
2022-10-09T09:39:35.174Z,14.32
2022-10-09T09:41:40.626Z,10.98
2022-10-09T09:44:12.559Z,10.30
2022-10-09T09:46:41.480Z,21.33
2022-10-09T09:49:20.406Z,13.32
2022-10-09T09:51:50.411Z,11.00
2022-10-09T09:54:21.658Z,14.82
2022-10-09T09:57:11.998Z,14.25
2022-10-09T09:59:43.362Z,10.55
2022-10-09T10:02:15.408Z,13.27
2022-10-09T10:04:54.617Z,14.20
2022-10-09T10:07:29.934Z,12.52
2022-10-09T10:10:14.321Z,17.65
2022-10-09T10:12:43.608Z,17.90
2022-10-09T10:15:23.317Z,14.38
2022-10-09T10:17:58.969Z,15.30
2022-10-09T10:20:28.698Z,16.42
2022-10-09T10:22:58.812Z,19.05
2022-10-09T10:25:31.669Z,11.57
2022-10-09T10:28:05.234Z,15.23
2022-10-09T10:30:36.933Z,25.42
2022-10-09T10:33:15.863Z,13.15
2022-10-09T10:35:45.557Z,14.07
2022-10-09T10:38:19.438Z,17.52
2022-10-09T10:43:32.427Z,13.48
2022-10-09T10:46:12.497Z,11.77
2022-10-09T10:48:42.835Z,11.82
2022-10-09T10:51:45.094Z,12.00
2022-10-09T10:54:27.724Z,14.13
2022-10-09T10:57:03.833Z,18.65
2022-10-09T10:59:40.918Z,16.92
2022-10-09T11:02:47.352Z,14.43
2022-10-09T11:05:24.137Z,19.08
2022-10-09T11:08:02.530Z,12.82
2022-10-09T11:10:42.472Z,13.93
2022-10-09T11:13:15.785Z,16.33
2022-10-09T11:15:56.323Z,18.55
2022-10-09T11:18:47.043Z,14.85
2022-10-09T11:21:28.018Z,16.77
2022-10-09T11:24:12.964Z,19.05
2022-10-09T11:26:48.062Z,25.08
2022-10-09T11:29:22.730Z,14.75
2022-10-09T11:31:58.093Z,14.23
2022-10-09T11:34:31.291Z,13.85
2022-10-09T11:37:02.504Z,18.02
2022-10-09T11:39:33.626Z,11.95
2022-10-09T11:42:02.263Z,15.13
2022-10-09T11:44:51.110Z,12.98
2022-10-09T11:47:27.682Z,11.20
2022-10-09T11:50:08.189Z,14.75
2022-10-09T11:52:49.969Z,11.60
2022-10-09T11:55:21.385Z,23.42
2022-10-09T11:57:49.613Z,16.30
2022-10-09T12:00:29.104Z,16.10
2022-10-09T12:03:00.977Z,16.23
2022-10-09T12:05:40.456Z,16.13
2022-10-09T12:08:15.453Z,6.88
2022-10-09T12:10:52.209Z,10.15
2022-10-09T12:13:41.822Z,17.35
2022-10-09T12:16:12.817Z,16.35
2022-10-09T12:18:46.715Z,7.63
2022-10-09T12:23:54.399Z,8.57
2022-10-09T12:26:25.067Z,14.05
2022-10-09T12:28:57.375Z,8.48
2022-10-09T12:31:30.210Z,5.40
2022-10-09T12:34:03.157Z,7.30
2022-10-09T12:36:33.696Z,9.87
2022-10-09T12:39:16.311Z,16.45
2022-10-09T12:41:48.222Z,17.40
2022-10-09T12:44:26.522Z,13.10
2022-10-09T12:46:55.053Z,11.05
2022-10-09T12:49:26.213Z,18.88
2022-10-09T12:51:56.695Z,7.40
2022-10-09T12:54:27.079Z,11.75
2022-10-09T12:56:57.554Z,9.15
2022-10-09T12:59:28.665Z,14.45
2022-10-09T13:02:00.162Z,16.13
2022-10-09T13:04:31.171Z,16.63
2022-10-09T13:07:00.779Z,19.25
2022-10-09T13:09:35.378Z,14.40
2022-10-09T13:12:09.227Z,11.30
2022-10-09T13:14:43.086Z,14.85
2022-10-09T13:17:24.978Z,6.78
2022-10-09T13:19:54.322Z,8.60
2022-10-09T13:22:23.611Z,5.40
2022-10-09T13:24:55.775Z,13.38
2022-10-09T13:27:27.257Z,8.05
2022-10-09T13:29:55.328Z,7.95
2022-10-09T13:32:24.318Z,8.15
2022-10-09T13:34:55.299Z,5.53
2022-10-09T13:37:26.251Z,3.67
2022-10-09T13:39:57.177Z,9.00
2022-10-09T13:42:27.662Z,7.50
2022-10-09T13:44:55.643Z,5.82
2022-10-09T13:47:24.847Z,12.70
2022-10-09T13:49:53.256Z,12.95
2022-10-09T13:52:21.277Z,5.45
2022-10-09T13:54:49.697Z,9.02
2022-10-09T13:57:19.475Z,12.40
2022-10-09T13:59:47.470Z,13.93
2022-10-09T14:02:15.534Z,7.72
2022-10-09T14:10:08.229Z,9.10
2022-10-09T14:12:38.219Z,11.25
2022-10-09T14:15:08.103Z,12.55
2022-10-09T14:43:40.647Z,12.50
2022-10-09T14:46:12.247Z,10.55
2022-10-09T14:48:41.038Z,7.35
2022-10-09T14:51:12.410Z,11.18
2022-10-09T14:53:40.726Z,13.95
2022-10-09T14:56:11.914Z,10.43
2022-10-09T14:58:45.606Z,15.60
2022-10-09T15:03:54.711Z,18.20
2022-10-09T15:06:24.926Z,14.38
2022-10-09T15:08:56.018Z,14.52
2022-10-09T15:11:24.551Z,9.90
2022-10-09T15:13:57.019Z,14.13
2022-10-09T15:16:49.259Z,24.48
2022-10-09T15:19:17.427Z,12.65
2022-10-09T15:21:45.599Z,10.77
2022-10-09T15:24:13.681Z,7.85
2022-10-09T15:26:46.492Z,13.02
2022-10-09T15:29:16.011Z,19.03
2022-10-09T15:31:44.082Z,11.00
2022-10-09T15:34:17.905Z,10.52
2022-10-09T15:36:46.145Z,15.25
2022-10-09T15:39:14.865Z,17.77
2022-10-09T15:41:43.971Z,12.25
2022-10-09T15:44:17.710Z,14.00
2022-10-09T15:49:14.086Z,12.88
2022-10-09T15:52:07.568Z,7.82
2022-10-09T15:54:35.655Z,7.10
2022-10-09T15:57:03.625Z,10.63
2022-10-09T15:59:37.098Z,11.93
2022-10-09T16:02:05.358Z,11.02
2022-10-09T16:04:33.372Z,6.82
2022-10-09T16:07:01.362Z,13.40
2022-10-09T16:09:33.126Z,9.02
2022-10-09T16:12:01.404Z,8.70
2022-10-09T16:14:30.214Z,9.25
2022-10-09T16:17:01.332Z,13.38
2022-10-09T16:19:29.367Z,10.50
2022-10-09T16:21:57.350Z,11.40
2022-10-09T16:24:25.386Z,15.63
2022-10-09T16:26:53.416Z,7.45
2022-10-09T16:29:21.447Z,6.25
2022-10-09T16:31:49.521Z,8.32
2022-10-09T16:34:18.987Z,7.47
2022-10-09T16:36:46.963Z,6.88
2022-10-09T16:39:15.006Z,9.90
2022-10-09T16:41:42.955Z,15.95
2022-10-09T16:44:14.439Z,12.13
2022-10-09T16:46:42.435Z,10.70
2022-10-09T16:49:18.891Z,8.20
2022-10-09T16:51:51.080Z,7.38
2022-10-09T16:54:19.037Z,9.15
2022-10-09T16:56:47.016Z,14.75
2022-10-09T16:59:15.119Z,11.07
2022-10-09T17:01:45.225Z,9.23
2022-10-09T17:04:14.911Z,9.63
2022-10-09T17:06:43.924Z,9.77
2022-10-09T17:09:14.655Z,9.95
2022-10-09T17:11:43.559Z,15.20
2022-10-09T17:14:12.229Z,8.07
2022-10-09T17:16:41.878Z,13.70
2022-10-09T17:19:10.259Z,8.73
2022-10-09T17:21:38.267Z,10.73
2022-10-09T17:24:07.747Z,10.10
2022-10-09T17:26:37.536Z,11.73
2022-10-09T17:29:05.827Z,12.05
2022-10-09T17:31:34.303Z,10.85
2022-10-09T17:34:04.029Z,6.93
2022-10-09T17:36:33.957Z,7.35
2022-10-09T17:39:02.346Z,19.55
2022-10-09T17:41:30.661Z,9.60
2022-10-09T17:44:00.816Z,10.18
2022-10-09T17:46:30.581Z,10.60
2022-10-09T17:48:59.855Z,14.00
2022-10-09T17:51:29.887Z,13.27
2022-10-09T17:54:01.082Z,9.45
2022-10-09T17:56:29.593Z,12.18
2022-10-09T17:58:59.414Z,8.85
2022-10-09T18:01:27.378Z,15.77
2022-10-09T18:03:55.475Z,10.55
2022-10-09T18:06:24.946Z,11.23
2022-10-09T18:08:55.494Z,12.40
2022-10-09T18:11:25.299Z,12.52
2022-10-09T18:13:54.648Z,14.95
2022-10-09T18:16:35.274Z,18.73
2022-10-09T18:19:05.788Z,11.00
2022-10-09T18:21:34.383Z,14.98
2022-10-09T18:24:02.651Z,19.75
2022-10-09T18:26:30.747Z,12.15
2022-10-09T18:28:59.912Z,16.73
2022-10-09T18:31:29.820Z,15.65
2022-10-09T18:33:59.020Z,10.15
2022-10-09T18:36:31.644Z,8.57
2022-10-09T18:39:02.416Z,12.73
2022-10-09T18:41:30.485Z,18.00
2022-10-09T18:44:01.508Z,11.30
2022-10-09T18:46:35.923Z,6.72
2022-10-09T18:49:04.301Z,6.25
2022-10-09T18:51:32.684Z,7.25
2022-10-09T18:54:04.091Z,10.30
2022-10-09T18:56:33.929Z,10.77
2022-10-09T18:59:04.989Z,15.10
2022-10-09T19:01:34.778Z,7.55
2022-10-09T19:04:02.998Z,8.40
2022-10-09T19:06:31.108Z,13.70
2022-10-09T19:09:01.002Z,10.52
2022-10-09T19:11:29.776Z,10.93
2022-10-09T19:13:59.879Z,13.45
2022-10-09T19:16:28.464Z,12.70
2022-10-09T19:18:58.285Z,13.73
2022-10-09T19:21:26.710Z,12.70
2022-10-09T19:23:55.290Z,5.50
2022-10-09T19:26:24.112Z,6.45
2022-10-09T19:28:52.284Z,9.05
2022-10-09T19:31:20.413Z,12.80
2022-10-09T19:33:48.621Z,10.00
2022-10-09T19:36:18.319Z,9.32
2022-10-09T19:38:47.419Z,9.05
2022-10-09T19:41:16.998Z,7.30
2022-10-09T19:43:45.807Z,6.65
2022-10-09T19:46:17.369Z,8.32
2022-10-09T19:48:46.181Z,12.23
2022-10-09T19:51:15.967Z,8.20
2022-10-09T19:53:45.726Z,11.48
2022-10-09T19:56:15.581Z,10.30
2022-10-09T19:58:45.108Z,12.80
2022-10-09T20:01:14.104Z,16.40
2022-10-09T20:03:42.674Z,13.25
2022-10-09T20:06:12.005Z,11.38
2022-10-09T20:08:41.793Z,14.73
2022-10-09T20:11:12.000Z,6.30
2022-10-09T20:13:41.499Z,7.88
2022-10-09T20:16:11.641Z,8.05
2022-10-09T20:18:42.366Z,14.77
2022-10-09T20:21:11.045Z,5.68
2022-10-09T20:23:39.166Z,5.45
2022-10-09T20:26:12.110Z,8.55
2022-10-09T20:28:40.382Z,20.40
2022-10-09T20:31:11.783Z,12.25
2022-10-09T20:33:40.106Z,14.43
2022-10-09T20:36:09.715Z,8.68
2022-10-09T20:38:37.712Z,11.75
2022-10-09T20:41:07.729Z,4.45
2022-10-09T20:43:37.836Z,7.50
2022-10-09T20:46:08.521Z,9.50
2022-10-09T20:48:37.117Z,7.45
2022-10-09T20:51:05.549Z,12.27
2022-10-09T20:53:34.283Z,8.75
2022-10-09T20:56:03.091Z,9.40
2022-10-09T20:58:31.328Z,7.70
2022-10-09T21:01:00.883Z,14.00
2022-10-09T21:03:28.894Z,7.38
2022-10-09T21:05:56.828Z,17.00
2022-10-09T21:08:24.843Z,12.45
2022-10-09T21:10:52.795Z,9.93
2022-10-09T21:13:20.768Z,11.75
2022-10-09T21:15:50.513Z,12.32
2022-10-09T21:18:20.816Z,16.83
2022-10-09T21:20:49.614Z,8.20
2022-10-09T21:23:19.784Z,20.23
2022-10-09T21:25:49.095Z,14.73
2022-10-09T21:28:17.637Z,14.02
2022-10-09T21:30:45.837Z,13.32
2022-10-09T21:33:13.997Z,12.55
2022-10-09T21:35:44.838Z,11.65
2022-10-09T21:38:14.426Z,8.15
2022-10-09T21:40:43.339Z,11.95
2022-10-09T21:43:11.679Z,13.88
2022-10-09T21:45:40.204Z,13.05
2022-10-09T21:48:08.882Z,10.57
2022-10-09T21:50:37.893Z,8.52
2022-10-09T21:53:07.313Z,18.80
2022-10-09T21:55:35.518Z,12.82
2022-10-09T21:58:03.481Z,10.60
2022-10-09T22:00:31.474Z,9.73
2022-10-09T22:02:59.779Z,12.07
2022-10-09T22:05:27.863Z,7.20
2022-10-09T22:07:55.888Z,13.00
2022-10-09T22:10:25.305Z,7.80
2022-10-09T22:12:53.653Z,7.43
2022-10-09T22:15:21.757Z,17.15
2022-10-09T22:17:49.720Z,14.52
2022-10-09T22:20:17.959Z,11.77
2022-10-09T22:22:45.994Z,9.85
2022-10-09T22:25:13.946Z,11.48
2022-10-09T22:27:43.289Z,17.52
2022-10-09T22:30:12.547Z,20.33
2022-10-09T22:32:40.558Z,10.48
2022-10-09T22:35:09.195Z,7.25
2022-10-09T22:37:37.146Z,11.85
2022-10-09T22:40:05.542Z,10.43
2022-10-09T22:42:34.531Z,15.63
2022-10-09T22:45:03.957Z,7.63
2022-10-09T22:47:31.973Z,11.30
2022-10-09T22:50:00.029Z,6.32
2022-10-09T22:52:28.572Z,7.93
2022-10-09T22:54:56.602Z,6.80
2022-10-09T22:57:24.573Z,7.38
2022-10-09T22:59:52.574Z,9.57
2022-10-09T23:02:21.969Z,7.68
2022-10-09T23:04:49.954Z,12.23
2022-10-09T23:07:17.934Z,16.65
2022-10-09T23:09:45.962Z,5.35
2022-10-09T23:12:13.906Z,5.90
2022-10-09T23:14:41.866Z,11.35
2022-10-09T23:17:09.811Z,15.25
2022-10-09T23:19:39.243Z,6.32
2022-10-09T23:22:07.242Z,13.50
2022-10-09T23:24:35.179Z,5.30
2022-10-09T23:27:03.177Z,4.32
2022-10-09T23:29:31.140Z,6.30
2022-10-09T23:31:59.114Z,9.60
2022-10-09T23:34:27.083Z,5.07
2022-10-09T23:36:56.373Z,6.38
2022-10-09T23:39:24.358Z,5.07
2022-10-09T23:41:52.350Z,14.32
2022-10-09T23:44:22.337Z,9.23
2022-10-09T23:46:50.439Z,7.70
2022-10-09T23:49:18.485Z,8.48
2022-10-09T23:51:46.455Z,6.38
2022-10-09T23:54:15.951Z,7.50
2022-10-09T23:56:44.079Z,8.90
2022-10-09T23:59:12.905Z,7.38
